Meteo Giornale » Osservazioni meteo Italia » Lamezia Terme

ore: 11:20 - Osservazioni Meteo Lamezia Terme
Lat. 38° 54' N Lon. 16° 15' E Alt. 15 metri s.l.m.

sereno Europe/Rome

22 °C

Sereno

Temp. 24 Ore

11 °C

22 °C

Ovest/Sud-Ovest

11.1 Km/h

Dew point 16 °C

Umidità 68 %

Visibilità  10 Km

Il sole sorge alle ore 06:14

Il sole tramonta alle ore 17:02

Data e Ora Cielo e Fenomeni T °C DP °C Um. % Pres. hPa Vis. km Vento km/h
Oggi h: 11:20 sereno Sereno 22 16 68 1017 10 O/SO 11.1
Oggi h: 10:20 molto_nuvoloso Molto Nuvoloso 20 15 72 1017 10 S/SO 11.1
Oggi h: 09:50 molto_nuvoloso Molto Nuvoloso 19 15 77 1017 10 N 5.5
Oggi h: 09:20 nuvoloso Nuvoloso 19 15 77 1017 10 N 5.5
Oggi h: 08:50 molto_nuvoloso Molto Nuvoloso 19 15 77 1017 10 O/NO 7.4
Oggi h: 08:20 molto_nuvoloso Molto Nuvoloso 17 15 88 1017 10 N 3.7
Oggi h: 07:50 molto_nuvoloso Molto Nuvoloso 15 14 93 1017 10 N 3.7
Oggi h: 06:50 poco_nuvoloso Poco Nuvoloso 11 11 100 1017 10 E 9.3
Oggi h: 06:20 poco_nuvoloso Poco Nuvoloso 11 11 100 1017 10 E/NE 9.3
Oggi h: 05:50 nuvoloso Nuvoloso 11 10 93 1017 10 E 9.3
Oggi h: 05:20 molto_nuvoloso Molto Nuvoloso 12 11 93 1017 10 E/NE 7.4
Oggi h: 04:50 poco_nuvoloso Poco Nuvoloso 12 11 93 1017 10 N 5.5
Oggi h: 03:50 molto_nuvoloso Molto Nuvoloso 13 12 93 1017 10 N 5.5
Oggi h: 03:20 molto_nuvoloso Molto Nuvoloso 12 12 100 1017 10 E 7.4
Oggi h: 02:50 molto_nuvoloso Molto Nuvoloso 13 12 93 1017 10 E 7.4
Oggi h: 02:20 molto_nuvoloso Molto Nuvoloso 14 13 93 1017 10 N 5.5
Oggi h: 01:20 nuvoloso Nuvoloso 13 12 93 1018 10 N 3.7
Oggi h: 01:50 molto_nuvoloso Molto Nuvoloso 14 12 87 1018 10 N 3.7
Oggi h: 01:20 nuvoloso Nuvoloso 15 12 82 1018 10 N 5.5
Oggi h: 00:50 sereno Sereno 14 12 87 1018 10 NO 9.3
Oggi h: 00:20 sereno Sereno 16 13 82 1018 10 N 3.7
Ieri h: 23:50 sereno Sereno 16 13 82 1018 10 O 11.1
Ieri h: 23:20 poco_nuvoloso Poco Nuvoloso 17 14 82 1018 10 O 9.3
Ieri h: 22:50 sereno Sereno 18 14 77 1018 10 O 11.1
Ieri h: 22:20 poco_nuvoloso Poco Nuvoloso 18 14 77 1018 10 O 14.8
Ieri h: 21:50 poco_nuvoloso Poco Nuvoloso 17 14 82 1018 10 O 13
Ieri h: 21:20 coperto_pioggia Pioggia Debole 18 15 82 1018 10 O 9.3
Ieri h: 20:20 molto_nuvoloso Molto Nuvoloso 18 14 77 1018 10 O/NO 9.3
Ieri h: 19:50 molto_nuvoloso Molto Nuvoloso 18 14 77 1018 10 O 11.1
Ieri h: 19:20 poco_nuvoloso Poco Nuvoloso 18 14 77 1018 10 O 13
Ieri h: 18:50 poco_nuvoloso Poco Nuvoloso 18 14 77 1017 10 O 13
Ieri h: 18:20 molto_nuvoloso Molto Nuvoloso 19 14 72 1017 10 O/NO 16.7
Ieri h: 17:50 coperto_pioggia Pioggia Debole 19 15 77 1017 10 O/NO 11.1
Ieri h: 16:50 molto_nuvoloso Molto Nuvoloso 20 14 68 1017 10 O 18.5
Ieri h: 15:50 molto_nuvoloso Molto Nuvoloso 21 13 60 1017 10 O 31.5
Ieri h: 15:20 nuvoloso Nuvoloso 22 13 56 1017 10 O 27.8
Ieri h: 14:50 poco_nuvoloso Poco Nuvoloso 22 12 53 1017 10 O 25.9
Ieri h: 14:20 poco_nuvoloso Poco Nuvoloso 22 11 49 1017 10 O 31.5
Ieri h: 13:50 poco_nuvoloso Poco Nuvoloso 22 12 53 1017 10 O 29.6
Ieri h: 13:20 sereno Sereno 22 11 49 1017 10 O 31.5
Ieri h: 12:50 sereno Sereno 22 11 49 1018 10 O 27.8